createdAt,value
2022-08-05T00:03:47.115Z,100270.42
2022-08-05T00:07:59.970Z,100270.29
2022-08-05T00:12:04.220Z,100271.12
2022-08-05T00:16:12.938Z,100267.77
2022-08-05T00:20:15.605Z,100261.08
2022-08-05T00:24:24.831Z,100261.23
2022-08-05T00:28:33.375Z,100263.06
2022-08-05T00:32:36.289Z,100261.28
2022-08-05T00:37:11.882Z,100262.08
2022-08-05T00:41:01.111Z,100262.54
2022-08-05T00:45:05.450Z,100259.35
2022-08-05T00:49:14.056Z,100252.70
2022-08-05T00:54:00.680Z,100256.16
2022-08-05T00:57:55.468Z,100251.66
2022-08-05T01:02:01.001Z,100251.86
2022-08-05T01:06:05.354Z,100247.39
2022-08-05T01:10:10.989Z,100249.84
2022-08-05T01:14:32.592Z,100249.36
2022-08-05T01:18:42.467Z,100248.72
2022-08-05T01:23:14.964Z,100245.05
2022-08-05T01:27:50.779Z,100243.56
2022-08-05T01:32:02.407Z,100243.40
2022-08-05T01:36:16.227Z,100241.08
2022-08-05T01:40:21.311Z,100239.30
2022-08-05T01:44:34.474Z,100241.36
2022-08-05T01:48:39.317Z,100240.00
2022-08-05T01:52:49.612Z,100234.88
2022-08-05T01:58:11.254Z,100232.88
2022-08-05T02:01:23.328Z,100234.21
2022-08-05T02:05:34.301Z,100236.53
2022-08-05T02:09:38.407Z,100234.52
2022-08-05T02:13:53.622Z,100230.65
2022-08-05T02:18:31.485Z,100221.85
2022-08-05T02:22:41.713Z,100221.86
2022-08-05T02:26:56.149Z,100218.16
2022-08-05T02:31:01.999Z,100214.58
2022-08-05T02:35:14.305Z,100216.05
2022-08-05T02:39:22.976Z,100212.70
2022-08-05T02:43:27.354Z,100210.17
2022-08-05T02:47:58.713Z,100209.95
2022-08-05T02:52:03.012Z,100209.05
2022-08-05T02:56:09.276Z,100208.73
2022-08-05T03:00:12.926Z,100200.16
2022-08-05T03:04:15.771Z,100201.96
2022-08-05T03:08:27.106Z,100197.06
2022-08-05T03:12:34.276Z,100198.69
2022-08-05T03:16:37.019Z,100192.99
2022-08-05T03:20:44.573Z,100184.98
2022-08-05T03:24:52.153Z,100181.34
2022-08-05T03:28:55.087Z,100187.20
2022-08-05T03:32:59.730Z,100190.52
2022-08-05T03:37:05.110Z,100185.06
2022-08-05T03:41:10.802Z,100185.02
2022-08-05T03:45:21.517Z,100183.23
2022-08-05T03:49:31.028Z,100183.73
2022-08-05T03:54:59.343Z,100181.41
2022-08-05T03:59:01.266Z,100178.41
2022-08-05T04:03:06.418Z,100174.79
2022-08-05T04:07:10.101Z,100176.44
2022-08-05T04:11:12.405Z,100175.52
2022-08-05T04:15:15.512Z,100177.68
2022-08-05T04:19:19.114Z,100180.84
2022-08-05T04:24:04.861Z,100184.08
2022-08-05T04:27:57.275Z,100184.58
2022-08-05T04:32:00.700Z,100190.45
2022-08-05T04:36:11.403Z,100188.06
2022-08-05T04:40:25.546Z,100185.08
2022-08-05T04:44:29.609Z,100181.80
2022-08-05T04:48:33.249Z,100183.61
2022-08-05T04:52:35.496Z,100179.55
2022-08-05T04:56:37.749Z,100181.08
2022-08-05T05:00:40.746Z,100182.75
2022-08-05T05:04:47.568Z,100175.71
2022-08-05T05:08:50.934Z,100178.63
2022-08-05T05:12:53.105Z,100183.18
2022-08-05T05:16:55.498Z,100180.39
2022-08-05T05:20:58.544Z,100182.45
2022-08-05T05:25:01.323Z,100185.23
2022-08-05T05:29:18.310Z,100186.89
2022-08-05T05:33:23.281Z,100188.64
2022-08-05T05:37:37.207Z,100190.48
2022-08-05T05:41:54.152Z,100192.73
2022-08-05T05:45:56.769Z,100191.43
2022-08-05T05:50:01.458Z,100191.98
2022-08-05T05:54:04.032Z,100191.06
2022-08-05T05:58:06.246Z,100187.26
2022-08-05T06:02:08.434Z,100185.86
2022-08-05T06:06:11.838Z,100188.10
2022-08-05T06:10:14.062Z,100191.65
2022-08-05T06:14:17.806Z,100187.85
2022-08-05T06:18:21.151Z,100189.19
2022-08-05T06:22:35.247Z,100191.92
2022-08-05T06:26:38.118Z,100188.41
2022-08-05T06:30:40.244Z,100186.62
2022-08-05T06:34:43.748Z,100187.08
2022-08-05T06:38:53.319Z,100189.54
2022-08-05T06:42:55.492Z,100190.56
2022-08-05T06:46:58.014Z,100193.25
2022-08-05T06:51:09.442Z,100190.21
2022-08-05T06:55:12.487Z,100190.06
2022-08-05T06:59:18.114Z,100182.64
2022-08-05T07:03:20.237Z,100180.26
2022-08-05T07:07:35.531Z,100175.05
2022-08-05T07:11:49.561Z,100173.59
2022-08-05T07:16:12.421Z,100172.66
2022-08-05T07:20:38.890Z,100166.59
2022-08-05T07:24:44.038Z,100167.02
2022-08-05T07:28:55.069Z,100167.30
2022-08-05T07:32:57.514Z,100168.35
2022-08-05T07:37:01.041Z,100171.40
2022-08-05T07:42:09.069Z,100174.52
2022-08-05T07:45:43.381Z,100176.81
2022-08-05T07:49:54.448Z,100171.02
2022-08-05T07:53:56.935Z,100168.72
2022-08-05T07:58:03.100Z,100159.80
2022-08-05T08:02:07.387Z,100160.85
2022-08-05T08:06:18.715Z,100161.30
2022-08-05T08:10:22.300Z,100157.16
2022-08-05T08:14:24.492Z,100153.05
2022-08-05T08:18:26.720Z,100148.40
2022-08-05T08:22:30.145Z,100154.31
2022-08-05T08:26:34.371Z,100154.98
2022-08-05T08:30:47.552Z,100157.90
2022-08-05T08:34:51.862Z,100152.20
2022-08-05T08:38:55.077Z,100152.96
2022-08-05T08:42:58.257Z,100149.73
2022-08-05T08:48:06.804Z,100144.14
2022-08-05T08:52:03.695Z,100148.02
2022-08-05T08:56:08.983Z,100142.27
2022-08-05T09:01:00.122Z,100136.30
2022-08-05T09:05:18.421Z,100135.17
2022-08-05T09:09:41.745Z,100135.23
2022-08-05T09:14:09.436Z,100128.36
2022-08-05T09:18:09.233Z,100125.27
2022-08-05T09:22:30.808Z,100124.39
2022-08-05T09:26:34.917Z,100118.45
2022-08-05T09:30:43.731Z,100115.06
2022-08-05T09:34:54.669Z,100112.27
2022-08-05T09:38:59.567Z,100109.63
2022-08-05T09:43:06.210Z,100104.67
2022-08-05T09:47:20.578Z,100106.88
2022-08-05T09:51:36.611Z,100103.22
2022-08-05T09:55:58.237Z,100099.57
2022-08-05T10:00:24.620Z,100104.29
2022-08-05T10:04:38.455Z,100105.55
2022-08-05T10:08:42.353Z,100103.36
2022-08-05T10:12:53.023Z,100101.59
2022-08-05T10:16:58.453Z,100090.19
2022-08-05T10:21:06.164Z,100085.98
2022-08-05T10:25:11.177Z,100087.33
2022-08-05T10:29:23.604Z,100085.86
2022-08-05T10:33:42.965Z,100080.39
2022-08-05T10:37:47.484Z,100082.23
2022-08-05T10:42:33.970Z,100069.50
2022-08-05T10:47:10.156Z,100071.30
2022-08-05T10:51:48.663Z,100067.31
2022-08-05T10:56:27.052Z,100062.65
2022-08-05T11:00:29.867Z,100057.30
2022-08-05T11:04:44.596Z,100054.88
2022-08-05T11:09:16.560Z,100042.58
2022-08-05T11:13:40.446Z,100043.97
2022-08-05T11:18:30.190Z,100036.66
2022-08-05T11:22:53.918Z,100035.04
2022-08-05T11:27:45.825Z,100030.19
2022-08-05T11:32:29.801Z,100028.31
2022-08-05T11:36:52.855Z,100028.45
2022-08-05T11:41:00.414Z,100034.33
2022-08-05T11:46:27.153Z,100030.42
2022-08-05T11:50:14.362Z,100024.50
2022-08-05T11:54:48.463Z,100014.85
2022-08-05T11:58:58.694Z,100020.33
2022-08-05T12:03:16.349Z,100013.88
2022-08-05T12:08:08.807Z,100012.90
2022-08-05T12:12:21.559Z,100009.80
2022-08-05T12:16:27.325Z,100006.70
2022-08-05T12:20:40.718Z,100007.89
2022-08-05T12:24:49.462Z,99999.11
2022-08-05T12:28:59.302Z,99992.95
2022-08-05T12:33:07.544Z,99988.13
2022-08-05T12:37:29.964Z,99987.56
2022-08-05T12:41:43.671Z,99988.95
2022-08-05T12:45:52.524Z,99975.02
2022-08-05T12:50:04.463Z,99969.52
2022-08-05T12:54:16.802Z,99974.67
2022-08-05T12:58:50.934Z,99966.70
2022-08-05T13:02:55.679Z,99971.66
2022-08-05T13:07:47.495Z,99962.31
2022-08-05T13:12:01.198Z,99960.40
2022-08-05T13:16:16.686Z,99953.91
2022-08-05T13:20:24.085Z,99949.84
2022-08-05T13:24:51.358Z,99943.80
2022-08-05T13:28:50.039Z,99944.34
2022-08-05T13:33:01.113Z,99940.48
2022-08-05T13:37:04.088Z,99938.59
2022-08-05T13:41:25.708Z,99935.92
2022-08-05T13:45:43.181Z,99933.63
2022-08-05T13:49:50.648Z,99931.11
2022-08-05T13:53:56.397Z,99928.96
2022-08-05T13:58:01.022Z,99924.27
2022-08-05T14:02:10.458Z,99921.63
2022-08-05T14:06:25.816Z,99923.14
2022-08-05T14:10:45.817Z,99919.57
2022-08-05T14:14:51.387Z,99910.30
2022-08-05T14:18:54.013Z,99907.73
2022-08-05T14:22:59.460Z,99908.64
2022-08-05T14:27:17.829Z,99901.68
2022-08-05T14:32:03.726Z,99902.06
2022-08-05T14:36:05.722Z,99898.33
2022-08-05T14:40:14.162Z,99897.28
2022-08-05T14:44:21.907Z,99894.32
2022-08-05T14:48:33.317Z,99894.87
2022-08-05T14:52:53.139Z,99895.17
2022-08-05T14:57:05.144Z,99893.02
2022-08-05T15:01:15.964Z,99895.35
2022-08-05T15:05:20.607Z,99891.52
2022-08-05T15:09:51.657Z,99890.60
2022-08-05T15:13:50.356Z,99887.07
2022-08-05T15:17:54.182Z,99882.66
2022-08-05T15:22:02.677Z,99883.80
2022-08-05T15:26:05.306Z,99886.42
2022-08-05T15:30:14.213Z,99879.23
2022-08-05T15:34:32.096Z,99877.79
2022-08-05T15:38:41.852Z,99876.88
2022-08-05T15:42:54.884Z,99873.75
2022-08-05T15:47:12.579Z,99874.36
2022-08-05T15:52:09.909Z,99869.45
2022-08-05T15:56:14.377Z,99862.45
2022-08-05T16:00:26.304Z,99855.99
2022-08-05T16:04:42.347Z,99862.08
2022-08-05T16:08:45.722Z,99864.41
2022-08-05T16:12:57.039Z,99866.73
2022-08-05T17:18:26.238Z,99847.89
2022-08-05T18:12:40.943Z,99861.48
2022-08-05T18:18:00.394Z,99865.05
2022-08-05T18:23:56.609Z,99865.33
2022-08-05T18:27:21.163Z,99862.04
2022-08-05T18:32:17.670Z,99863.72
2022-08-05T18:37:34.291Z,99864.34
2022-08-05T18:42:11.893Z,99871.42
2022-08-05T18:46:45.316Z,99873.67
2022-08-05T18:52:04.358Z,99881.14
2022-08-05T18:56:54.466Z,99889.96
2022-08-05T19:02:26.667Z,99890.59
2022-08-05T19:06:53.754Z,99890.60
2022-08-05T20:03:11.019Z,99901.21
2022-08-05T20:07:47.835Z,99902.38
2022-08-05T20:13:58.241Z,99895.70
